MyTimes logo

TIMES

Webb Imagery

17/01/1999
Cowes Classic
500m Swim / 4.0km Run

(Click on competitor name to view personalised results)

Name
Race #
Category
Team Name
Time
(h:mm:ss)
Avg Speed
km/hr
OAll
Place
Cat
Place
BENTLEY Tim#90Senior Male0:21:15 12.7 11
STEWART Matt#43Senior Male0:21:50 12.4 22
VAN WISSE John#67Senior Male0:22:11 12.2 33
SPIERINGS Martin#36Senior Male0:22:31 12 44
CLAYTON Marc#94Senior Male0:22:41 11.9 55
THOMPSON Craig-Le#59Senior Male0:22:45 11.9 66
HOLLINS Peter#73Senior Male0:23:52 11.3 77
ARMSTRONG Graeme#161Over 40 Male0:24:26 11.1 81
STEEL Andrew#25Senior Male0:24:33 11 98
O'CONNELL Penny#230Senior Female0:24:42 10.9 101
WETTENHALL Georgie#227Team Mixed0:25:00 10.8 111
STEVIC Michael#179Team Male0:25:02 10.8 121
EVANS Brad#31Senior Male0:25:17 10.7 139
HENDRIKSE Dean#62Senior Male0:25:34 10.6 1410
FLEISNER Rob#64Senior Male0:25:38 10.5 1511
ENTWISLE John#259Team Male0:25:38 10.5 162
BRADFORD Peter#75Senior Male0:25:58 10.4 1712
WEAVER Craig#258Over 40 Male0:26:06 10.3 182
PHELAN Patrick#63Senior Male0:26:09 10.3 1913
YUSKO William#197Over 40 Male0:26:09 10.3 203
ROYALS Wayne#41Senior Male0:26:13 10.3 2114
DE BRUYN Paul#229Junior Male0:26:20 10.3 221
REID Jason#58Senior Male0:26:24 10.2 2315
GORDON Michael#223Over 40 Male0:26:36 10.2 244
FRANKLIN Brett#66Senior Male0:26:43 10.1 2516
WOOD Jeremy#266Junior Male0:26:44 10.1 262
LEVERSHA David#187Over 40 Male0:26:48 10.1 275
DALLINGER Chris#70Senior Male0:26:51 10.1 2817
MORRISON Luke#234Junior Male0:26:55 10 293
BRUCE Stephen#164Team Male0:27:06 10 303
DAVIDSON Russell#26Senior Male0:27:07 10 3118
DAVID Rob#76Senior Male0:27:12 9.9 3219
STEER Leesa#222Team Female0:27:15 9.9 331
GARRETT Geoff#68Senior Male0:27:25 9.8 3420
HANDLEY Tim#93Senior Male0:27:28 9.8 3521
COOPER Peter#77Senior Male0:27:29 9.8 3622
NOBLE Fiona#175Senior Female0:27:37 9.8 372
BRUCE Matt#163Team Male0:27:40 9.8 384
AVAGE Kelly#170Team Mixed0:27:40 9.8 392
CURWEN Nigel#87Senior Male0:27:47 9.7 4023
CAPLE Alexande#228Team Male0:27:50 9.7 415
ROLLAND Thierry#65Senior Male0:27:51 9.7 4224
MCHENRY David#215Team Mixed0:27:55 9.7 433
BRADEN Michael#14Senior Male0:27:57 9.7 4425
THISTLETHWAITE Adam#208Junior Male0:27:57 9.7 454
COX Marc#242Team Mixed0:27:59 9.6 464
LUNN Paul#53Senior Male0:28:02 9.6 4726
PANEBIANCO Leigh#162Junior Male0:28:07 9.6 485
ROWLINGSON Ken#96Senior Male0:28:10 9.6 4927
HOGHTON Daniel#160Junior Male0:28:11 9.6 506
BUDDICK Tony#61Senior Male0:28:13 9.6 5128
STANLEY Johnatho#204Team Male0:28:13 9.6 526
O'CONNELL Sarah#232Junior Female0:28:15 9.6 531
HEWETT Noel#88Senior Male0:28:16 9.6 5429
MARSHALL Luke#71Senior Male0:28:18 9.5 5530
BREACH Paul#79Senior Male0:28:18 9.5 5631
BULL Deanne#246Team Female0:28:19 9.5 572
NEWTON Rodney#18Senior Male0:28:28 9.5 5832
ASHMORE Allan#203Team Mixed0:28:32 9.5 595
BARDWELL Lachlan#29Senior Male0:28:37 9.4 6033
CLINTON Brad#260Team Male0:28:45 9.4 617
KILDAY Ben#236Junior Male0:28:46 9.4 627
NOBLE Karen#201Senior Female0:29:01 9.3 633
HAMMOND Henry#180Over 40 Male0:29:02 9.3 646
LEVERSHA Lyn#188Over 40 Female0:29:03 9.3 651
MORRISON Adam#72Senior Male0:29:08 9.3 6634
LETTEN Mark#212Over 40 Male0:29:13 9.2 677
RYDER Brett#12Senior Male0:29:19 9.2 6835
PLANT Mark Vic#233Team Male0:29:19 9.2 698
KENT Ryan#199Junior Male0:29:22 9.2 708
STINEAR Tim#21Senior Male0:29:28 9.2 7136
STEER Andrew#81Senior Male0:29:29 9.2 7237
NEVINS Susan#174Senior Female0:29:29 9.2 734
YUSKO Daniel#196Junior Male0:29:38 9.1 749
OLLIVER Scott#37Senior Male0:29:41 9.1 7538
CAP[LE Sally#217Team Mixed0:29:44 9.1 766
CORBETT Jim#253Team Mixed0:29:45 9.1 777
HILDERBRAND Annie#250Junior Female0:29:49 9.1 782
CARISS Pip#205Team Mixed0:29:50 9.1 798
BIBBY Kimberle#168Team Mixed0:29:51 9 809
CHISHOLM Andy#19Senior Male0:29:54 9 8139
SABEC Frank#74Senior Male0:29:57 9 8240
RODGERS Andrew#20Senior Male0:29:58 9 8341
SHERIDAN John#92Senior Male0:29:59 9 8442
DOWER Markham#46Senior Male0:30:01 9 8543
BARNES John#224Over 40 Male0:30:07 9 868
NEVINS John#167Team Mixed0:30:11 8.9 8710
VANDERVEEN Sue#192Senior Female0:30:12 8.9 885
SMITH Peter#97Senior Male0:30:16 8.9 8944
WHITTAKER Michael#82Senior Male0:30:18 8.9 9045
ANDERSON Garry#189Over 40 Male0:30:20 8.9 919
BROOKS Duncan#34Senior Male0:30:22 8.9 9246
SCULLY Chris#52Senior Male0:30:24 8.9 9347
MARUM Stuart#239Junior Male0:30:33 8.8 9410
CAPLE Eliza#216Team Mixed0:30:36 8.8 9511
CARTER Dean#158Over 40 Male0:30:37 8.8 9610
JOHNSON Glen#32Senior Male0:30:39 8.8 9748
DAVIE Angela#151Senior Female0:30:40 8.8 986
SPOTTISWOOD James#244Junior Male0:30:43 8.8 9911
DALLINGER Brian#241Over 40 Male0:30:47 8.8 10011
SCHEPMAKER Nick#54Senior Male0:30:54 8.7 10149
MACKAY Geoff#247Over 40 Male0:30:56 8.7 10212
MCHENRY Andrew#218Senior Male0:30:57 8.7 10350
STINEAR David#78Senior Male0:30:58 8.7 10451
SUNDERLAND Peter#194Over 40 Male0:31:02 8.7 10513
MCHENRY Simon#214Senior Male0:31:07 8.7 10652
CAHILL Richard#86Senior Male0:31:09 8.7 10753
CHURCHILL Trent#28Senior Male0:31:10 8.7 10854
MATTHEWS Robert#193Over 40 Male0:31:10 8.7 10914
SUNDERLAND Andrew#240Team Mixed0:31:11 8.7 11012
EVANS Randall#38Senior Male0:31:15 8.6 11155
ASHMORE Peter#190Junior Male0:31:24 8.6 11212
KEADY Richard#184Over 40 Male0:31:27 8.6 11315
KILDAY Jan#235Over 40 Male0:31:28 8.6 11416
LACCO Alan#24Senior Male0:31:32 8.6 11556
THORLEY Skot#45Senior Male0:31:34 8.6 11657
HAYES Nick#263Junior Male0:31:35 8.5 11713
WHELLER Brad#69Senior Male0:31:48 8.5 11858
REED Mark#23Senior Male0:31:49 8.5 11959
NORTHEAST Simon#11Senior Male0:31:52 8.5 12060
STATHAM Jeremy#10Senior Male0:31:57 8.5 12161
GRANT Andrew#80Senior Male0:31:58 8.4 12262
BARRY Karina#206Team Mixed0:32:06 8.4 12313
VELLIN Mark#257Team Male0:32:08 8.4 1249
PURDUE Emma#225Junior Female0:32:08 8.4 1253
PRYOR Brendan#85Senior Male0:32:17 8.4 12663
FYLE Michael#50Senior Male0:32:18 8.4 12764
TROJAN Lara#153Junior Female0:32:19 8.4 1284
BEOVICH Mark#39Senior Male0:32:21 8.3 12965
MC LEISH Tania#185Team Female0:32:29 8.3 1303
HENNING Christop#231Team Male0:32:30 8.3 13110
DICKSON Ronald#30Senior Male0:32:31 8.3 13266
REID Karina#221Senior Female0:32:35 8.3 1337
SMITH Jennifer#152Junior Female0:32:38 8.3 1345
WHELLER Laurie#243Over 40 Male0:32:43 8.3 13517
DICKSON Karyn#186Team Female0:32:43 8.3 1364
WEIR Warren#213Team Male0:32:47 8.2 13711
FLEISNER Paul#181Over 40 Male0:32:49 8.2 13818
DALEY Rob#57Senior Male0:32:50 8.2 13967
THORSON Lynne#172Senior Female0:33:04 8.2 1408
MC GULLAH Angela#198Senior Female0:33:04 8.2 1419
SMITH Gregory#33Senior Male0:33:10 8.1 14268
CIRULIS Eril#51Senior Male0:33:14 8.1 14369
THOMSON Don#262Team Mixed0:33:16 8.1 14414
STEVENS Mark Ian#55Senior Male0:33:18 8.1 14570
WHITEHOUSE Richard#265Senior Male0:33:26 8.1 14671
CRENNAN Jane#202Team Mixed0:33:41 8 14715
MASSUGER Wayne#44Senior Male0:33:44 8 14872
TRUSLER Craig#49Senior Male0:33:44 8 14973
WHITE Graham#238Over 40 Male0:33:58 7.9 15019
GREEN John#249Senior Male0:33:59 7.9 15174
ROBERTSON Sharon#254Team Mixed0:34:01 7.9 15216
NAK Rodney#35Senior Male0:34:06 7.9 15375
PAGE Wayne#98Senior Male0:34:12 7.9 15476
WYNEN John#211Team Mixed0:34:20 7.9 15517
BARRY Cheryle#268Team Mixed0:34:23 7.9 15618
MANNING Simon#40Senior Male0:34:31 7.8 15777
WORCESTER Greg#22Senior Male0:34:35 7.8 15878
SCOTT Rebecca#255Team Female0:34:42 7.8 1595
CAILE Nici#171Team Mixed0:34:47 7.8 16019
CAMPBELL Daniel#237Junior Male0:34:59 7.7 16114
VILLARI Michael#16Senior Male0:35:03 7.7 16279
PUINTON Paul#89Senior Male0:35:11 7.7 16380
KING Belinda#165Team Mixed0:35:12 7.7 16420
TROJAN Nadia#154Junior Female0:35:19 7.6 1656
FLENTJE Sarah#248Team Female0:35:24 7.6 1666
MURPHY Anthony#27Senior Male0:35:27 7.6 16781
HAINSWORTH Ruth#166Team Mixed0:35:29 7.6 16821
THOMPSON Christop#219Over 40 Male0:35:39 7.6 16920
JOHNSON Celia#178Over 40 Female0:35:57 7.5 1702
GEE Ian#48Senior Male0:36:01 7.5 17182
MILLER Lisa Jan#226Over 40 Female0:36:01 7.5 1723
TAYLOR Sarah#207Team Mixed0:36:14 7.5 17322
SULLIVAN Peter#220Over 40 Male0:36:22 7.4 17421
KELLY Katherin#191Senior Female0:36:22 7.4 17510
GRAY Tony#95Senior Male0:36:25 7.4 17683
MCKENZIE Scott#56Senior Male0:36:25 7.4 17784
WALTON David#209Over 40 Male0:36:32 7.4 17822
FLENTJE Kate#200Junior Female0:36:52 7.3 1797
ALLARDICE Craig#42Senior Male0:37:00 7.3 18085
QUILFORD Rees#267Team Male0:37:03 7.3 18112
DART Geoffrey#173Over 40 Male0:37:03 7.3 18223
BEASLEY Jane#169Team Mixed0:37:04 7.3 18323
ANDERSON Samantha#176Team Female0:37:04 7.3 1847
YUSKO Imogine#195Junior Female0:37:29 7.2 1858
FAIRWEATHER Trent#84Senior Male0:38:47 7 18686
MURDOCH Andrew#83Senior Male0:39:59 6.8 18787
RENTON Douglas#264Over 40 Male0:40:11 6.7 18824
HARRIS Gary#251Team Male0:40:37 6.6 18913
REEK George#245Over 40 Male0:41:08 6.6 19025
ZIMMERMAN Kirrily#157Senior Female0:41:26 6.5 19111
LYON Timothy#47Senior Male0:41:50 6.5 19288
GREEN Geneviev#261Over 40 Female0:42:37 6.3 1934
ALCOCK Susan#182Senior Female0:44:12 6.1 19412
KAUCNER Christin#183Senior Female0:44:12 6.1 19513
BEWLEY Rikki#155Over 40 Female0:45:08 6 1965
ALLARDICE Sally Lo#210Senior Female0:45:29 5.9 19714
KONTOGOURIS Earlene#156Over 40 Female0:46:41 5.8 1986
FERRIES Don#256Over 40 Male0:00:00 0DNF0
JOHNSTON Brian#252Team Male0:00:00 0DNF0